Terminal Aerodrome Forecast
Issued by NWS Jackson, KY

Home | Current Version | Previous Version | Text Only | Print | Product List | Glossary On
Versions: 1 2 3 4 5 6 7 8 9 10 11 12 13 14 15 16 17
000
FTUS43 KJKL 041134
TAFJKL
TAF
KJKL 041134Z 0412/0512 VRB03KT 5SM BR OVC005
     FM041330 VRB03KT 6SM BR BKN010
     FM041500 VRB03KT P6SM BKN025
     FM041700 VRB03KT P6SM BKN035 BKN090
     FM050500 VRB03KT 3SM BR VCSH SCT015 OVC035=

USA.gov is the U.S. government's official web portal to all federal, state and local government web resources and services.